Agios Panteleimon — SX7669 — position and weather

sailwx.info

Track history (hours):
 
Tides and Currents Weather Stations Pressure Air Temp Water Temp Dewpoint Dewpoint Depression Visibility Wind Speed Wind Dir Waves Ship Positions

Agios Panteleimon

Last reported at 2018-Feb-21 12:54 UTC. Time now 2018-Feb-21 19:39 UTC.
Position N 40°46' E 024°35'.

Length 58 m; draft 2.3 m.

Type: Ship. MMSI: 237033700.

Date/timePositionNaut miles runAvg speedWind from/ knotsBaromVisibWave heightAir tempDewpointWater temp
2018-Feb-21 12:54N 40°46' E 024°35'0 0.0
2018-Feb-21 12:30N 40°46' E 024°35'0 0.0
2018-Feb-21 12:00N 40°46' E 024°35'0 0.0
2018-Feb-21 11:29N 40°46' E 024°35'0 0.0
2018-Feb-21 11:00N 40°46' E 024°35'0 0.0
2018-Feb-21 10:30N 40°46' E 024°35'0 0.0
2018-Feb-21 10:00N 40°46' E 024°35'0 0.0
2018-Feb-21 09:30N 40°46' E 024°35'0 0.0
2018-Feb-21 09:00N 40°46' E 024°35'0 0.0
2018-Feb-21 08:30N 40°46' E 024°35'0 0.0
2018-Feb-21 08:00N 40°46' E 024°35'0 0.0
2018-Feb-21 07:30N 40°46' E 024°35'0 0.0
2018-Feb-21 07:00N 40°46' E 024°35'0 0.0
2018-Feb-21 06:30N 40°46' E 024°35'0 0.0
2018-Feb-21 06:00N 40°46' E 024°35'0 0.0
2018-Feb-21 05:30N 40°46' E 024°35'0 0.0
2018-Feb-21 05:00N 40°46' E 024°35'0 0.0
2018-Feb-20 13:29N 40°46' E 024°35'4 8.8
2018-Feb-20 13:00N 40°49' E 024°31'5 9.6
2018-Feb-20 12:30N 40°53' E 024°28'4 7.7
2018-Feb-20 12:00N 40°56' E 024°25'1 1.4
2018-Feb-20 11:30N 40°55' E 024°24'510.4
2018-Feb-20 11:00N 40°51' E 024°28'510.7
2018-Feb-20 10:30N 40°47' E 024°33'2 4.4
2018-Feb-20 10:00N 40°46' E 024°35'0 0.0
2018-Feb-20 09:30N 40°46' E 024°35'0 0.0
2018-Feb-20 09:00N 40°46' E 024°35'2 3.5
2018-Feb-20 08:30N 40°47' E 024°34'5 9.4
2018-Feb-20 08:00N 40°51' E 024°30'5 9.9
2018-Feb-20 07:30N 40°55' E 024°25'2 3.1
2018-Feb-20 07:00N 40°56' E 024°25'1 1.9
2018-Feb-20 06:30N 40°55' E 024°24'510.0
2018-Feb-20 06:00N 40°51' E 024°28'510.5
2018-Feb-20 05:30N 40°47' E 024°33'2 4.0
2018-Feb-20 05:00N 40°46' E 024°35'0 0.0
2018-Feb-19 13:31N 40°46' E 024°35'0 1.4
2018-Feb-19 13:30N 40°46' E 024°35'4 8.7
2018-Feb-19 13:00N 40°49' E 024°31'5 9.4
2018-Feb-19 12:30N 40°53' E 024°28'4 7.5
2018-Feb-19 12:00N 40°56' E 024°25'1 1.2
2018-Feb-19 11:30N 40°56' E 024°24'510.6
2018-Feb-19 11:00N 40°51' E 024°28'510.7
2018-Feb-19 10:30N 40°47' E 024°33'2 4.1
2018-Feb-19 10:00N 40°46' E 024°35'0 0.0
2018-Feb-19 09:30N 40°46' E 024°35'0 0.0
2018-Feb-19 09:00N 40°46' E 024°35'2 3.4
2018-Feb-19 08:30N 40°47' E 024°33'5 9.5
2018-Feb-19 08:00N 40°51' E 024°30'5 9.8
2018-Feb-19 07:30N 40°55' E 024°25'2 3.1
2018-Feb-19 07:00N 40°56' E 024°25'1 1.2
2018-Feb-19 06:30N 40°55' E 024°24'510.4
2018-Feb-19 06:00N 40°51' E 024°28'510.7
2018-Feb-19 05:30N 40°47' E 024°33'2 4.1
2018-Feb-19 05:00N 40°46' E 024°35'0 0.0
2018-Feb-18 17:18N 40°46' E 024°35'1 4.9
2018-Feb-18 17:00N 40°47' E 024°34'510.0
2018-Feb-18 16:30N 40°51' E 024°30'510.1
2018-Feb-18 16:00N 40°55' E 024°26'2 3.0
2018-Feb-18 15:30N 40°56' E 024°25'3 5.9
2018-Feb-18 15:00N 40°53' E 024°26'510.6
2018-Feb-18 14:30N 40°49' E 024°31'5 9.3
2018-Feb-18 14:00N 40°46' E 024°35'0 0.0
2018-Feb-18 13:30N 40°46' E 024°35'4 7.8
2018-Feb-18 13:00N 40°49' E 024°32'510.0
2018-Feb-18 12:30N 40°53' E 024°28'4 8.1
2018-Feb-18 12:00N 40°56' E 024°25'1 1.5
2018-Feb-18 11:30N 40°55' E 024°24'510.4
2018-Feb-18 11:00N 40°51' E 024°28'510.6
2018-Feb-18 10:30N 40°47' E 024°33'2 4.1
2018-Feb-18 10:00N 40°46' E 024°35'0 0.0
2018-Feb-18 09:30N 40°46' E 024°35'0 0.0
2018-Feb-18 09:00N 40°46' E 024°35'0 0.0
2018-Feb-18 08:30N 40°46' E 024°35'0 0.0
2018-Feb-18 08:00N 40°46' E 024°35'0 0.0
2018-Feb-18 07:30N 40°46' E 024°35'0 0.0
2018-Feb-18 07:00N 40°46' E 024°35'0 0.0
2018-Feb-18 06:30N 40°46' E 024°35'0 0.0
2018-Feb-17 13:27N 40°46' E 024°35'4 9.1
2018-Feb-17 13:01N 40°49' E 024°32'5 9.7
2018-Feb-17 12:31N 40°53' E 024°28'4 8.1
2018-Feb-17 12:01N 40°56' E 024°25'1 1.5
2018-Feb-17 11:31N 40°55' E 024°24'510.5
2018-Feb-17 11:01N 40°51' E 024°28'510.5
2018-Feb-17 10:31N 40°47' E 024°33'2 3.9
2018-Feb-17 10:00N 40°46' E 024°35'0 0.0
2018-Feb-17 09:31N 40°46' E 024°35'0 0.0
2018-Feb-17 09:00N 40°46' E 024°35'1 2.9
2018-Feb-17 08:31N 40°47' E 024°34'5 9.8
2018-Feb-17 08:01N 40°51' E 024°30'510.0
2018-Feb-17 07:31N 40°54' E 024°26'2 3.4
2018-Feb-17 07:01N 40°56' E 024°25'1 1.5
2018-Feb-17 06:30N 40°55' E 024°24'510.3
2018-Feb-17 06:01N 40°51' E 024°28'510.5
2018-Feb-17 05:31N 40°47' E 024°33'2 4.2
2018-Feb-17 05:00N 40°46' E 024°35'0 0.0
2018-Feb-16 13:30N 40°46' E 024°35'4 8.4
2018-Feb-16 13:00N 40°49' E 024°32'5 9.8
2018-Feb-16 12:30N 40°53' E 024°28'4 7.7
2018-Feb-16 12:00N 40°56' E 024°25'1 1.1
2018-Feb-16 11:30N 40°56' E 024°24'510.6
2018-Feb-16 11:00N 40°51' E 024°28'510.7
2018-Feb-16 10:30N 40°47' E 024°33'2 4.1
2018-Feb-16 10:00N 40°46' E 024°35'0 0.0
2018-Feb-16 09:30N 40°46' E 024°35'0 0.0
2018-Feb-16 09:00N 40°46' E 024°35'2 3.5
2018-Feb-16 08:30N 40°47' E 024°34'5 9.5
2018-Feb-16 08:00N 40°51' E 024°30'5 9.8
2018-Feb-16 07:30N 40°54' E 024°26'2 3.2
2018-Feb-16 07:00N 40°56' E 024°25'1 1.5
2018-Feb-16 06:30N 40°55' E 024°24'510.4
2018-Feb-16 06:00N 40°51' E 024°28'510.6
2018-Feb-16 05:30N 40°47' E 024°33'2 4.1
2018-Feb-16 05:00N 40°46' E 024°35'0 0.0
2018-Feb-15 11:29N 40°46' E 024°35'0 0.0
2018-Feb-15 11:01N 40°46' E 024°35'0 0.0
2018-Feb-15 10:30N 40°46' E 024°35'0 0.0
2018-Feb-15 10:01N 40°46' E 024°35'0 0.0
2018-Feb-15 09:30N 40°46' E 024°35'0 0.0
2018-Feb-15 09:01N 40°46' E 024°35'0 0.0
2018-Feb-15 08:30N 40°46' E 024°35'0 0.0
2018-Feb-15 08:00N 40°46' E 024°35'0 0.0
2018-Feb-15 07:30N 40°46' E 024°35'0 0.0
2018-Feb-15 07:01N 40°46' E 024°35'0 0.0
2018-Feb-15 06:31N 40°46' E 024°35'0 0.0
2018-Feb-15 06:01N 40°46' E 024°35'0 0.0
2018-Feb-15 05:30N 40°46' E 024°35'0 0.0
2018-Feb-15 05:01N 40°46' E 024°35'0 0.0
2018-Feb-14 14:00N 40°46' E 024°35'0 0.1
2018-Feb-14 13:30N 40°46' E 024°35'4 8.3
2018-Feb-14 13:00N 40°49' E 024°32'5 9.8
2018-Feb-14 12:30N 40°52' E 024°27'4 8.0
2018-Feb-14 12:00N 40°56' E 024°25'1 2.4
2018-Feb-14 11:31N 40°55' E 024°24'5 9.8
2018-Feb-14 11:00N 40°51' E 024°29'510.0
2018-Feb-14 10:30N 40°47' E 024°33'2 4.1
2018-Feb-14 09:59N 40°46' E 024°35'0 0.0
2018-Feb-14 09:30N 40°46' E 024°35'0 0.0
2018-Feb-14 09:01N 40°46' E 024°35'1 2.4
2018-Feb-14 08:30N 40°47' E 024°34'510.3
2018-Feb-14 08:01N 40°50' E 024°29'510.1
2018-Feb-14 07:30N 40°55' E 024°25'2 3.1
2018-Feb-14 07:01N 40°56' E 024°25'1 2.0
2018-Feb-14 06:30N 40°55' E 024°25'5 9.9
2018-Feb-14 06:00N 40°51' E 024°29'510.2
2018-Feb-14 05:31N 40°47' E 024°33'2 4.0
2018-Feb-14 05:01N 40°46' E 024°35'0 0.0
2018-Feb-13 13:33N 40°46' E 024°35'0 0.1
2018-Feb-13 13:31N 40°46' E 024°35'4 7.8
2018-Feb-13 13:00N 40°49' E 024°32'5 9.7
2018-Feb-13 12:31N 40°52' E 024°28'4 8.2
2018-Feb-13 12:01N 40°56' E 024°25'1 1.5
2018-Feb-13 11:30N 40°55' E 024°24'510.4
2018-Feb-13 11:01N 40°51' E 024°28'510.5
2018-Feb-13 10:31N 40°47' E 024°33'2 4.1
2018-Feb-13 10:00N 40°46' E 024°35'0 0.0
2018-Feb-13 09:30N 40°46' E 024°35'0 0.0
2018-Feb-13 09:01N 40°46' E 024°35'1 2.8
2018-Feb-13 08:30N 40°47' E 024°33'5 9.7
2018-Feb-13 08:01N 40°50' E 024°29'510.0
2018-Feb-13 07:31N 40°54' E 024°26'2 3.3
2018-Feb-13 07:01N 40°56' E 024°25'1 1.5
2018-Feb-13 06:31N 40°55' E 024°24'510.3
2018-Feb-13 06:01N 40°51' E 024°28'510.7
2018-Feb-13 05:31N 40°47' E 024°33'2 4.1
2018-Feb-13 05:01N 40°46' E 024°35'0 0.0
2018-Feb-12 13:32N 40°46' E 024°35'0 0.3
2018-Feb-12 13:30N 40°46' E 024°35'4 8.0
2018-Feb-12 13:00N 40°49' E 024°32'5 9.8
2018-Feb-12 12:30N 40°53' E 024°28'4 7.9
2018-Feb-12 12:00N 40°56' E 024°25'1 1.1
2018-Feb-12 11:30N 40°56' E 024°24'510.6
2018-Feb-12 11:00N 40°51' E 024°28'510.8
2018-Feb-12 10:30N 40°47' E 024°33'2 4.2
2018-Feb-12 10:00N 40°46' E 024°35'0 0.0
2018-Feb-12 09:30N 40°46' E 024°35'0 0.0
2018-Feb-12 09:00N 40°46' E 024°35'1 2.6
2018-Feb-12 08:30N 40°47' E 024°34'510.0
2018-Feb-12 08:00N 40°51' E 024°30'510.1
2018-Feb-12 07:30N 40°54' E 024°26'2 3.2
2018-Feb-12 07:00N 40°56' E 024°25'1 1.3
2018-Feb-12 06:30N 40°55' E 024°24'510.5
2018-Feb-12 06:00N 40°51' E 024°28'510.8
2018-Feb-12 05:30N 40°47' E 024°33'2 4.1
2018-Feb-12 05:00N 40°46' E 024°35'0 0.0
2018-Feb-11 17:13N 40°46' E 024°35'1 6.1
2018-Feb-11 17:00N 40°47' E 024°34'510.0
2018-Feb-11 16:30N 40°51' E 024°30'510.0
2018-Feb-11 16:00N 40°55' E 024°25'2 3.1
2018-Feb-11 15:30N 40°56' E 024°25'3 6.0
2018-Feb-11 15:00N 40°53' E 024°26'510.7
2018-Feb-11 14:30N 40°49' E 024°31'5 9.4
2018-Feb-11 14:00N 40°46' E 024°35'0 0.0
2018-Feb-11 13:30N 40°46' E 024°35'0 0.0
2018-Feb-11 13:00N 40°46' E 024°35'  
Track history (hours):
 
Tides and Currents Weather Stations Pressure Air Temp Water Temp Dewpoint Dewpoint Depression Visibility Wind Speed Wind Dir Waves Ship Positions

Agios Panteleimon

Last reported at 2018-Feb-21 12:54 UTC. Time now 2018-Feb-21 19:39 UTC.
Position N 40°46' E 024°35'.

Length 58 m; draft 2.3 m.

Type: Ship. MMSI: 237033700.

Date/timePositionNaut miles runAvg speedWind from/ knotsBaromVisibWave heightAir tempDewpointWater temp
2018-Feb-21 12:54N 40°46' E 024°35'0 0.0
2018-Feb-21 12:30N 40°46' E 024°35'0 0.0
2018-Feb-21 12:00N 40°46' E 024°35'0 0.0
2018-Feb-21 11:29N 40°46' E 024°35'0 0.0
2018-Feb-21 11:00N 40°46' E 024°35'0 0.0
2018-Feb-21 10:30N 40°46' E 024°35'0 0.0
2018-Feb-21 10:00N 40°46' E 024°35'0 0.0
2018-Feb-21 09:30N 40°46' E 024°35'0 0.0
2018-Feb-21 09:00N 40°46' E 024°35'0 0.0
2018-Feb-21 08:30N 40°46' E 024°35'0 0.0
2018-Feb-21 08:00N 40°46' E 024°35'0 0.0
2018-Feb-21 07:30N 40°46' E 024°35'0 0.0
2018-Feb-21 07:00N 40°46' E 024°35'0 0.0
2018-Feb-21 06:30N 40°46' E 024°35'0 0.0
2018-Feb-21 06:00N 40°46' E 024°35'0 0.0
2018-Feb-21 05:30N 40°46' E 024°35'0 0.0
2018-Feb-21 05:00N 40°46' E 024°35'0 0.0
2018-Feb-20 13:29N 40°46' E 024°35'4 8.8
2018-Feb-20 13:00N 40°49' E 024°31'5 9.6
2018-Feb-20 12:30N 40°53' E 024°28'4 7.7
2018-Feb-20 12:00N 40°56' E 024°25'1 1.4
2018-Feb-20 11:30N 40°55' E 024°24'510.4
2018-Feb-20 11:00N 40°51' E 024°28'510.7
2018-Feb-20 10:30N 40°47' E 024°33'2 4.4
2018-Feb-20 10:00N 40°46' E 024°35'0 0.0
2018-Feb-20 09:30N 40°46' E 024°35'0 0.0
2018-Feb-20 09:00N 40°46' E 024°35'2 3.5
2018-Feb-20 08:30N 40°47' E 024°34'5 9.4
2018-Feb-20 08:00N 40°51' E 024°30'5 9.9
2018-Feb-20 07:30N 40°55' E 024°25'2 3.1
2018-Feb-20 07:00N 40°56' E 024°25'1 1.9
2018-Feb-20 06:30N 40°55' E 024°24'510.0
2018-Feb-20 06:00N 40°51' E 024°28'510.5
2018-Feb-20 05:30N 40°47' E 024°33'2 4.0
2018-Feb-20 05:00N 40°46' E 024°35'0 0.0
2018-Feb-19 13:31N 40°46' E 024°35'0 1.4
2018-Feb-19 13:30N 40°46' E 024°35'4 8.7
2018-Feb-19 13:00N 40°49' E 024°31'5 9.4
2018-Feb-19 12:30N 40°53' E 024°28'4 7.5
2018-Feb-19 12:00N 40°56' E 024°25'1 1.2
2018-Feb-19 11:30N 40°56' E 024°24'510.6
2018-Feb-19 11:00N 40°51' E 024°28'510.7
2018-Feb-19 10:30N 40°47' E 024°33'2 4.1
2018-Feb-19 10:00N 40°46' E 024°35'0 0.0
2018-Feb-19 09:30N 40°46' E 024°35'0 0.0
2018-Feb-19 09:00N 40°46' E 024°35'2 3.4
2018-Feb-19 08:30N 40°47' E 024°33'5 9.5
2018-Feb-19 08:00N 40°51' E 024°30'5 9.8
2018-Feb-19 07:30N 40°55' E 024°25'2 3.1
2018-Feb-19 07:00N 40°56' E 024°25'1 1.2
2018-Feb-19 06:30N 40°55' E 024°24'510.4
2018-Feb-19 06:00N 40°51' E 024°28'510.7
2018-Feb-19 05:30N 40°47' E 024°33'2 4.1
2018-Feb-19 05:00N 40°46' E 024°35'0 0.0
2018-Feb-18 17:18N 40°46' E 024°35'1 4.9
2018-Feb-18 17:00N 40°47' E 024°34'510.0
2018-Feb-18 16:30N 40°51' E 024°30'510.1
2018-Feb-18 16:00N 40°55' E 024°26'2 3.0
2018-Feb-18 15:30N 40°56' E 024°25'3 5.9
2018-Feb-18 15:00N 40°53' E 024°26'510.6
2018-Feb-18 14:30N 40°49' E 024°31'5 9.3
2018-Feb-18 14:00N 40°46' E 024°35'0 0.0
2018-Feb-18 13:30N 40°46' E 024°35'4 7.8
2018-Feb-18 13:00N 40°49' E 024°32'510.0
2018-Feb-18 12:30N 40°53' E 024°28'4 8.1
2018-Feb-18 12:00N 40°56' E 024°25'1 1.5
2018-Feb-18 11:30N 40°55' E 024°24'510.4
2018-Feb-18 11:00N 40°51' E 024°28'510.6
2018-Feb-18 10:30N 40°47' E 024°33'2 4.1
2018-Feb-18 10:00N 40°46' E 024°35'0 0.0
2018-Feb-18 09:30N 40°46' E 024°35'0 0.0
2018-Feb-18 09:00N 40°46' E 024°35'0 0.0
2018-Feb-18 08:30N 40°46' E 024°35'0 0.0
2018-Feb-18 08:00N 40°46' E 024°35'0 0.0
2018-Feb-18 07:30N 40°46' E 024°35'0 0.0
2018-Feb-18 07:00N 40°46' E 024°35'0 0.0
2018-Feb-18 06:30N 40°46' E 024°35'0 0.0
2018-Feb-17 13:27N 40°46' E 024°35'4 9.1
2018-Feb-17 13:01N 40°49' E 024°32'5 9.7
2018-Feb-17 12:31N 40°53' E 024°28'4 8.1
2018-Feb-17 12:01N 40°56' E 024°25'1 1.5
2018-Feb-17 11:31N 40°55' E 024°24'510.5
2018-Feb-17 11:01N 40°51' E 024°28'510.5
2018-Feb-17 10:31N 40°47' E 024°33'2 3.9
2018-Feb-17 10:00N 40°46' E 024°35'0 0.0
2018-Feb-17 09:31N 40°46' E 024°35'0 0.0
2018-Feb-17 09:00N 40°46' E 024°35'1 2.9
2018-Feb-17 08:31N 40°47' E 024°34'5 9.8
2018-Feb-17 08:01N 40°51' E 024°30'510.0
2018-Feb-17 07:31N 40°54' E 024°26'2 3.4
2018-Feb-17 07:01N 40°56' E 024°25'1 1.5
2018-Feb-17 06:30N 40°55' E 024°24'510.3
2018-Feb-17 06:01N 40°51' E 024°28'510.5
2018-Feb-17 05:31N 40°47' E 024°33'2 4.2
2018-Feb-17 05:00N 40°46' E 024°35'0 0.0
2018-Feb-16 13:30N 40°46' E 024°35'4 8.4
2018-Feb-16 13:00N 40°49' E 024°32'5 9.8
2018-Feb-16 12:30N 40°53' E 024°28'4 7.7
2018-Feb-16 12:00N 40°56' E 024°25'1 1.1
2018-Feb-16 11:30N 40°56' E 024°24'510.6
2018-Feb-16 11:00N 40°51' E 024°28'510.7
2018-Feb-16 10:30N 40°47' E 024°33'2 4.1
2018-Feb-16 10:00N 40°46' E 024°35'0 0.0
2018-Feb-16 09:30N 40°46' E 024°35'0 0.0
2018-Feb-16 09:00N 40°46' E 024°35'2 3.5
2018-Feb-16 08:30N 40°47' E 024°34'5 9.5
2018-Feb-16 08:00N 40°51' E 024°30'5 9.8
2018-Feb-16 07:30N 40°54' E 024°26'2 3.2
2018-Feb-16 07:00N 40°56' E 024°25'1 1.5
2018-Feb-16 06:30N 40°55' E 024°24'510.4
2018-Feb-16 06:00N 40°51' E 024°28'510.6
2018-Feb-16 05:30N 40°47' E 024°33'2 4.1
2018-Feb-16 05:00N 40°46' E 024°35'0 0.0
2018-Feb-15 11:29N 40°46' E 024°35'0 0.0
2018-Feb-15 11:01N 40°46' E 024°35'0 0.0
2018-Feb-15 10:30N 40°46' E 024°35'0 0.0
2018-Feb-15 10:01N 40°46' E 024°35'0 0.0
2018-Feb-15 09:30N 40°46' E 024°35'0 0.0
2018-Feb-15 09:01N 40°46' E 024°35'0 0.0
2018-Feb-15 08:30N 40°46' E 024°35'0 0.0
2018-Feb-15 08:00N 40°46' E 024°35'0 0.0
2018-Feb-15 07:30N 40°46' E 024°35'0 0.0
2018-Feb-15 07:01N 40°46' E 024°35'0 0.0
2018-Feb-15 06:31N 40°46' E 024°35'0 0.0
2018-Feb-15 06:01N 40°46' E 024°35'0 0.0
2018-Feb-15 05:30N 40°46' E 024°35'0 0.0
2018-Feb-15 05:01N 40°46' E 024°35'0 0.0
2018-Feb-14 14:00N 40°46' E 024°35'0 0.1
2018-Feb-14 13:30N 40°46' E 024°35'4 8.3
2018-Feb-14 13:00N 40°49' E 024°32'5 9.8
2018-Feb-14 12:30N 40°52' E 024°27'4 8.0
2018-Feb-14 12:00N 40°56' E 024°25'1 2.4
2018-Feb-14 11:31N 40°55' E 024°24'5 9.8
2018-Feb-14 11:00N 40°51' E 024°29'510.0
2018-Feb-14 10:30N 40°47' E 024°33'2 4.1
2018-Feb-14 09:59N 40°46' E 024°35'0 0.0
2018-Feb-14 09:30N 40°46' E 024°35'0 0.0
2018-Feb-14 09:01N 40°46' E 024°35'1 2.4
2018-Feb-14 08:30N 40°47' E 024°34'510.3
2018-Feb-14 08:01N 40°50' E 024°29'510.1
2018-Feb-14 07:30N 40°55' E 024°25'2 3.1
2018-Feb-14 07:01N 40°56' E 024°25'1 2.0
2018-Feb-14 06:30N 40°55' E 024°25'5 9.9
2018-Feb-14 06:00N 40°51' E 024°29'510.2
2018-Feb-14 05:31N 40°47' E 024°33'2 4.0
2018-Feb-14 05:01N 40°46' E 024°35'0 0.0
2018-Feb-13 13:33N 40°46' E 024°35'0 0.1
2018-Feb-13 13:31N 40°46' E 024°35'4 7.8
2018-Feb-13 13:00N 40°49' E 024°32'5 9.7
2018-Feb-13 12:31N 40°52' E 024°28'4 8.2
2018-Feb-13 12:01N 40°56' E 024°25'1 1.5
2018-Feb-13 11:30N 40°55' E 024°24'510.4
2018-Feb-13 11:01N 40°51' E 024°28'510.5
2018-Feb-13 10:31N 40°47' E 024°33'2 4.1
2018-Feb-13 10:00N 40°46' E 024°35'0 0.0
2018-Feb-13 09:30N 40°46' E 024°35'0 0.0
2018-Feb-13 09:01N 40°46' E 024°35'1 2.8
2018-Feb-13 08:30N 40°47' E 024°33'5 9.7
2018-Feb-13 08:01N 40°50' E 024°29'510.0
2018-Feb-13 07:31N 40°54' E 024°26'2 3.3
2018-Feb-13 07:01N 40°56' E 024°25'1 1.5
2018-Feb-13 06:31N 40°55' E 024°24'510.3
2018-Feb-13 06:01N 40°51' E 024°28'510.7
2018-Feb-13 05:31N 40°47' E 024°33'2 4.1
2018-Feb-13 05:01N 40°46' E 024°35'0 0.0
2018-Feb-12 13:32N 40°46' E 024°35'0 0.3
2018-Feb-12 13:30N 40°46' E 024°35'4 8.0
2018-Feb-12 13:00N 40°49' E 024°32'5 9.8
2018-Feb-12 12:30N 40°53' E 024°28'4 7.9
2018-Feb-12 12:00N 40°56' E 024°25'1 1.1
2018-Feb-12 11:30N 40°56' E 024°24'510.6
2018-Feb-12 11:00N 40°51' E 024°28'510.8
2018-Feb-12 10:30N 40°47' E 024°33'2 4.2
2018-Feb-12 10:00N 40°46' E 024°35'0 0.0
2018-Feb-12 09:30N 40°46' E 024°35'0 0.0
2018-Feb-12 09:00N 40°46' E 024°35'1 2.6
2018-Feb-12 08:30N 40°47' E 024°34'510.0
2018-Feb-12 08:00N 40°51' E 024°30'510.1
2018-Feb-12 07:30N 40°54' E 024°26'2 3.2
2018-Feb-12 07:00N 40°56' E 024°25'1 1.3
2018-Feb-12 06:30N 40°55' E 024°24'510.5
2018-Feb-12 06:00N 40°51' E 024°28'510.8
2018-Feb-12 05:30N 40°47' E 024°33'2 4.1
2018-Feb-12 05:00N 40°46' E 024°35'0 0.0
2018-Feb-11 17:13N 40°46' E 024°35'1 6.1
2018-Feb-11 17:00N 40°47' E 024°34'510.0
2018-Feb-11 16:30N 40°51' E 024°30'510.0
2018-Feb-11 16:00N 40°55' E 024°25'2 3.1
2018-Feb-11 15:30N 40°56' E 024°25'3 6.0
2018-Feb-11 15:00N 40°53' E 024°26'510.7
2018-Feb-11 14:30N 40°49' E 024°31'5 9.4
2018-Feb-11 14:00N 40°46' E 024°35'0 0.0
2018-Feb-11 13:30N 40°46' E 024°35'0 0.0
2018-Feb-11 13:00N 40°46' E 024°35'  

Dump ship's entire track history